sensor_id;sensor_type;location;lat;lon;timestamp;P1;durP1;ratioP1;P2;durP2;ratioP2
80748;SDS011;70145;53.746;9.970;2023-11-19T00:01:48;4.75;;;2.80;;
80748;SDS011;70145;53.746;9.970;2023-11-19T00:04:14;4.70;;;2.90;;
80748;SDS011;70145;53.746;9.970;2023-11-19T00:06:39;4.73;;;2.80;;
80748;SDS011;70145;53.746;9.970;2023-11-19T00:09:04;4.23;;;2.73;;
80748;SDS011;70145;53.746;9.970;2023-11-19T00:11:29;6.05;;;3.40;;
80748;SDS011;70145;53.746;9.970;2023-11-19T00:13:55;3.73;;;2.27;;
80748;SDS011;70145;53.746;9.970;2023-11-19T00:16:20;3.73;;;2.20;;
80748;SDS011;70145;53.746;9.970;2023-11-19T00:18:45;6.27;;;2.83;;
80748;SDS011;70145;53.746;9.970;2023-11-19T00:21:11;3.50;;;2.60;;
80748;SDS011;70145;53.746;9.970;2023-11-19T00:23:36;2.75;;;2.00;;
80748;SDS011;70145;53.746;9.970;2023-11-19T00:26:02;3.35;;;2.38;;
80748;SDS011;70145;53.746;9.970;2023-11-19T00:28:27;3.40;;;2.25;;
80748;SDS011;70145;53.746;9.970;2023-11-19T00:30:53;3.47;;;1.77;;
80748;SDS011;70145;53.746;9.970;2023-11-19T00:33:18;2.42;;;1.70;;
80748;SDS011;70145;53.746;9.970;2023-11-19T00:35:44;1.83;;;1.40;;
80748;SDS011;70145;53.746;9.970;2023-11-19T00:38:09;2.33;;;1.80;;
80748;SDS011;70145;53.746;9.970;2023-11-19T00:40:34;2.08;;;1.77;;
80748;SDS011;70145;53.746;9.970;2023-11-19T00:43:00;1.67;;;1.20;;
80748;SDS011;70145;53.746;9.970;2023-11-19T00:45:25;2.42;;;2.15;;
80748;SDS011;70145;53.746;9.970;2023-11-19T00:47:50;2.63;;;1.40;;
80748;SDS011;70145;53.746;9.970;2023-11-19T00:50:16;2.03;;;1.07;;
80748;SDS011;70145;53.746;9.970;2023-11-19T00:52:41;2.20;;;1.13;;
80748;SDS011;70145;53.746;9.970;2023-11-19T00:55:06;2.05;;;1.25;;
80748;SDS011;70145;53.746;9.970;2023-11-19T00:57:32;2.33;;;1.60;;
80748;SDS011;70145;53.746;9.970;2023-11-19T00:59:57;1.85;;;1.20;;
80748;SDS011;70145;53.746;9.970;2023-11-19T01:02:23;2.53;;;1.20;;
80748;SDS011;70145;53.746;9.970;2023-11-19T01:04:49;2.35;;;1.15;;
80748;SDS011;70145;53.746;9.970;2023-11-19T01:07:14;2.35;;;1.10;;
80748;SDS011;70145;53.746;9.970;2023-11-19T01:09:41;1.90;;;1.20;;
80748;SDS011;70145;53.746;9.970;2023-11-19T01:12:07;1.38;;;1.10;;
80748;SDS011;70145;53.746;9.970;2023-11-19T01:14:33;1.30;;;0.80;;
80748;SDS011;70145;53.746;9.970;2023-11-19T01:16:58;2.60;;;1.23;;
80748;SDS011;70145;53.746;9.970;2023-11-19T01:19:23;1.83;;;1.30;;
80748;SDS011;70145;53.746;9.970;2023-11-19T01:21:52;1.40;;;0.68;;
80748;SDS011;70145;53.746;9.970;2023-11-19T01:24:18;1.42;;;1.10;;
80748;SDS011;70145;53.746;9.970;2023-11-19T01:26:44;1.10;;;0.73;;
80748;SDS011;70145;53.746;9.970;2023-11-19T01:29:15;1.50;;;1.00;;
80748;SDS011;70145;53.746;9.970;2023-11-19T01:31:45;1.20;;;0.77;;
80748;SDS011;70145;53.746;9.970;2023-11-19T01:34:16;1.00;;;0.90;;
80748;SDS011;70145;53.746;9.970;2023-11-19T01:36:41;1.60;;;0.90;;
80748;SDS011;70145;53.746;9.970;2023-11-19T01:39:07;0.90;;;0.80;;
80748;SDS011;70145;53.746;9.970;2023-11-19T01:41:35;1.23;;;0.75;;
80748;SDS011;70145;53.746;9.970;2023-11-19T01:44:01;1.00;;;0.75;;
80748;SDS011;70145;53.746;9.970;2023-11-19T01:46:27;1.00;;;0.68;;
80748;SDS011;70145;53.746;9.970;2023-11-19T01:48:52;0.77;;;0.57;;
80748;SDS011;70145;53.746;9.970;2023-11-19T01:51:19;0.93;;;0.50;;
80748;SDS011;70145;53.746;9.970;2023-11-19T01:53:45;0.50;;;0.40;;
80748;SDS011;70145;53.746;9.970;2023-11-19T01:56:11;1.05;;;0.63;;
80748;SDS011;70145;53.746;9.970;2023-11-19T01:58:39;1.42;;;1.33;;
80748;SDS011;70145;53.746;9.970;2023-11-19T02:01:06;0.75;;;0.43;;
80748;SDS011;70145;53.746;9.970;2023-11-19T02:03:32;0.95;;;0.50;;
80748;SDS011;70145;53.746;9.970;2023-11-19T02:05:58;1.10;;;0.80;;
80748;SDS011;70145;53.746;9.970;2023-11-19T02:08:25;0.88;;;0.70;;
80748;SDS011;70145;53.746;9.970;2023-11-19T02:10:51;0.80;;;0.60;;
80748;SDS011;70145;53.746;9.970;2023-11-19T02:13:17;2.80;;;0.60;;
80748;SDS011;70145;53.746;9.970;2023-11-19T02:15:43;0.40;;;0.40;;
80748;SDS011;70145;53.746;9.970;2023-11-19T02:18:22;0.57;;;0.40;;
80748;SDS011;70145;53.746;9.970;2023-11-19T02:20:49;0.52;;;0.47;;
80748;SDS011;70145;53.746;9.970;2023-11-19T02:23:15;0.65;;;0.32;;
80748;SDS011;70145;53.746;9.970;2023-11-19T02:25:42;0.70;;;0.50;;
80748;SDS011;70145;53.746;9.970;2023-11-19T02:28:11;0.73;;;0.32;;
80748;SDS011;70145;53.746;9.970;2023-11-19T02:30:37;1.17;;;0.30;;
80748;SDS011;70145;53.746;9.970;2023-11-19T02:33:02;0.30;;;0.22;;
80748;SDS011;70145;53.746;9.970;2023-11-19T02:35:30;0.50;;;0.20;;
80748;SDS011;70145;53.746;9.970;2023-11-19T02:37:57;0.30;;;0.13;;
80748;SDS011;70145;53.746;9.970;2023-11-19T02:40:24;0.70;;;0.30;;
80748;SDS011;70145;53.746;9.970;2023-11-19T02:42:50;0.50;;;0.35;;
80748;SDS011;70145;53.746;9.970;2023-11-19T02:45:16;0.50;;;0.30;;
80748;SDS011;70145;53.746;9.970;2023-11-19T02:47:42;0.40;;;0.10;;
80748;SDS011;70145;53.746;9.970;2023-11-19T02:50:09;0.30;;;0.17;;
80748;SDS011;70145;53.746;9.970;2023-11-19T02:52:38;0.17;;;0.10;;
80748;SDS011;70145;53.746;9.970;2023-11-19T02:55:04;0.45;;;0.30;;
80748;SDS011;70145;53.746;9.970;2023-11-19T02:57:34;0.40;;;0.15;;
80748;SDS011;70145;53.746;9.970;2023-11-19T02:59:59;0.60;;;0.30;;
80748;SDS011;70145;53.746;9.970;2023-11-19T03:02:25;0.27;;;0.20;;
80748;SDS011;70145;53.746;9.970;2023-11-19T03:04:58;0.47;;;0.28;;
80748;SDS011;70145;53.746;9.970;2023-11-19T03:07:24;0.30;;;0.22;;
80748;SDS011;70145;53.746;9.970;2023-11-19T03:09:49;0.38;;;0.20;;
80748;SDS011;70145;53.746;9.970;2023-11-19T03:12:14;0.20;;;0.17;;
80748;SDS011;70145;53.746;9.970;2023-11-19T03:14:40;0.50;;;0.20;;
80748;SDS011;70145;53.746;9.970;2023-11-19T03:17:05;0.30;;;0.20;;
80748;SDS011;70145;53.746;9.970;2023-11-19T03:19:30;0.57;;;0.30;;
80748;SDS011;70145;53.746;9.970;2023-11-19T03:21:56;0.60;;;0.60;;
80748;SDS011;70145;53.746;9.970;2023-11-19T03:24:21;0.80;;;0.43;;
80748;SDS011;70145;53.746;9.970;2023-11-19T03:26:50;0.40;;;0.40;;
80748;SDS011;70145;53.746;9.970;2023-11-19T03:29:15;0.55;;;0.47;;
80748;SDS011;70145;53.746;9.970;2023-11-19T03:31:44;0.43;;;0.43;;
80748;SDS011;70145;53.746;9.970;2023-11-19T03:34:09;0.32;;;0.32;;
80748;SDS011;70145;53.746;9.970;2023-11-19T03:36:35;0.50;;;0.32;;
80748;SDS011;70145;53.746;9.970;2023-11-19T03:39:00;1.65;;;0.55;;
80748;SDS011;70145;53.746;9.970;2023-11-19T03:41:26;0.73;;;0.57;;
80748;SDS011;70145;53.746;9.970;2023-11-19T03:43:51;0.85;;;0.52;;
80748;SDS011;70145;53.746;9.970;2023-11-19T03:46:17;0.77;;;0.77;;
80748;SDS011;70145;53.746;9.970;2023-11-19T03:48:43;0.82;;;0.73;;
80748;SDS011;70145;53.746;9.970;2023-11-19T03:51:08;0.60;;;0.50;;
80748;SDS011;70145;53.746;9.970;2023-11-19T03:53:34;0.73;;;0.50;;
80748;SDS011;70145;53.746;9.970;2023-11-19T03:55:59;0.80;;;0.80;;
80748;SDS011;70145;53.746;9.970;2023-11-19T03:58:24;0.80;;;0.73;;
80748;SDS011;70145;53.746;9.970;2023-11-19T04:00:49;1.50;;;1.13;;
80748;SDS011;70145;53.746;9.970;2023-11-19T04:03:15;1.07;;;0.97;;
80748;SDS011;70145;53.746;9.970;2023-11-19T04:05:40;1.80;;;1.20;;
80748;SDS011;70145;53.746;9.970;2023-11-19T04:08:05;1.17;;;0.93;;
80748;SDS011;70145;53.746;9.970;2023-11-19T04:10:31;1.03;;;0.93;;
80748;SDS011;70145;53.746;9.970;2023-11-19T04:12:56;1.60;;;1.30;;
80748;SDS011;70145;53.746;9.970;2023-11-19T04:15:21;3.45;;;1.98;;
80748;SDS011;70145;53.746;9.970;2023-11-19T04:17:47;1.23;;;1.10;;
80748;SDS011;70145;53.746;9.970;2023-11-19T04:20:12;1.87;;;1.40;;
80748;SDS011;70145;53.746;9.970;2023-11-19T04:22:38;2.28;;;2.05;;
80748;SDS011;70145;53.746;9.970;2023-11-19T04:25:04;2.65;;;1.88;;
80748;SDS011;70145;53.746;9.970;2023-11-19T04:27:29;4.18;;;2.22;;
80748;SDS011;70145;53.746;9.970;2023-11-19T04:29:55;2.50;;;2.30;;
80748;SDS011;70145;53.746;9.970;2023-11-19T04:32:20;3.90;;;2.65;;
80748;SDS011;70145;53.746;9.970;2023-11-19T04:34:46;3.63;;;2.70;;
80748;SDS011;70145;53.746;9.970;2023-11-19T04:37:11;3.27;;;2.97;;
80748;SDS011;70145;53.746;9.970;2023-11-19T04:39:36;2.77;;;2.33;;
80748;SDS011;70145;53.746;9.970;2023-11-19T04:42:02;3.22;;;2.92;;
80748;SDS011;70145;53.746;9.970;2023-11-19T04:44:27;2.95;;;2.60;;
80748;SDS011;70145;53.746;9.970;2023-11-19T04:46:54;2.67;;;2.47;;
80748;SDS011;70145;53.746;9.970;2023-11-19T04:49:19;5.60;;;3.25;;
80748;SDS011;70145;53.746;9.970;2023-11-19T04:51:45;3.95;;;2.85;;
80748;SDS011;70145;53.746;9.970;2023-11-19T04:54:14;3.60;;;3.15;;
80748;SDS011;70145;53.746;9.970;2023-11-19T04:56:39;3.97;;;2.92;;
80748;SDS011;70145;53.746;9.970;2023-11-19T04:59:05;5.05;;;3.47;;
80748;SDS011;70145;53.746;9.970;2023-11-19T05:01:31;3.60;;;2.97;;
80748;SDS011;70145;53.746;9.970;2023-11-19T05:03:57;4.35;;;3.20;;
80748;SDS011;70145;53.746;9.970;2023-11-19T05:06:27;5.75;;;4.18;;
80748;SDS011;70145;53.746;9.970;2023-11-19T05:08:56;4.85;;;3.97;;
80748;SDS011;70145;53.746;9.970;2023-11-19T05:11:26;4.93;;;4.15;;
80748;SDS011;70145;53.746;9.970;2023-11-19T05:13:53;5.03;;;3.88;;
80748;SDS011;70145;53.746;9.970;2023-11-19T05:16:18;6.78;;;3.92;;
80748;SDS011;70145;53.746;9.970;2023-11-19T05:18:45;5.47;;;4.20;;
80748;SDS011;70145;53.746;9.970;2023-11-19T05:21:11;8.43;;;4.40;;
80748;SDS011;70145;53.746;9.970;2023-11-19T05:23:36;6.68;;;4.03;;
80748;SDS011;70145;53.746;9.970;2023-11-19T05:26:02;6.50;;;4.30;;
80748;SDS011;70145;53.746;9.970;2023-11-19T05:28:27;6.40;;;4.80;;
80748;SDS011;70145;53.746;9.970;2023-11-19T05:30:52;4.75;;;3.67;;
80748;SDS011;70145;53.746;9.970;2023-11-19T05:33:18;7.40;;;4.77;;
80748;SDS011;70145;53.746;9.970;2023-11-19T05:35:43;7.67;;;4.70;;
80748;SDS011;70145;53.746;9.970;2023-11-19T05:38:08;7.28;;;4.93;;
80748;SDS011;70145;53.746;9.970;2023-11-19T05:40:34;8.07;;;5.60;;
80748;SDS011;70145;53.746;9.970;2023-11-19T05:43:00;7.53;;;4.50;;
80748;SDS011;70145;53.746;9.970;2023-11-19T05:45:26;7.70;;;4.70;;
80748;SDS011;70145;53.746;9.970;2023-11-19T05:47:51;7.97;;;5.20;;
80748;SDS011;70145;53.746;9.970;2023-11-19T05:50:17;7.43;;;5.55;;
80748;SDS011;70145;53.746;9.970;2023-11-19T05:52:43;8.93;;;5.30;;
80748;SDS011;70145;53.746;9.970;2023-11-19T05:55:09;8.13;;;4.95;;
80748;SDS011;70145;53.746;9.970;2023-11-19T05:57:35;8.15;;;6.45;;
80748;SDS011;70145;53.746;9.970;2023-11-19T06:00:01;7.53;;;5.10;;
80748;SDS011;70145;53.746;9.970;2023-11-19T06:02:28;8.52;;;4.45;;
80748;SDS011;70145;53.746;9.970;2023-11-19T06:04:53;7.73;;;5.63;;
80748;SDS011;70145;53.746;9.970;2023-11-19T06:07:19;8.45;;;5.78;;
80748;SDS011;70145;53.746;9.970;2023-11-19T06:09:45;10.38;;;5.55;;
80748;SDS011;70145;53.746;9.970;2023-11-19T06:12:10;10.80;;;6.50;;
80748;SDS011;70145;53.746;9.970;2023-11-19T06:14:35;10.43;;;6.35;;
80748;SDS011;70145;53.746;9.970;2023-11-19T06:17:01;9.13;;;6.13;;
80748;SDS011;70145;53.746;9.970;2023-11-19T06:19:26;7.87;;;5.33;;
80748;SDS011;70145;53.746;9.970;2023-11-19T06:21:51;8.15;;;4.88;;
80748;SDS011;70145;53.746;9.970;2023-11-19T06:24:17;8.82;;;5.88;;
80748;SDS011;70145;53.746;9.970;2023-11-19T06:26:42;7.90;;;5.15;;
80748;SDS011;70145;53.746;9.970;2023-11-19T06:29:08;9.85;;;5.95;;
80748;SDS011;70145;53.746;9.970;2023-11-19T06:31:33;9.82;;;4.45;;
80748;SDS011;70145;53.746;9.970;2023-11-19T06:33:58;8.38;;;5.30;;
80748;SDS011;70145;53.746;9.970;2023-11-19T06:36:24;11.65;;;5.25;;
80748;SDS011;70145;53.746;9.970;2023-11-19T06:38:49;10.80;;;5.65;;
80748;SDS011;70145;53.746;9.970;2023-11-19T06:41:14;10.17;;;5.33;;
80748;SDS011;70145;53.746;9.970;2023-11-19T06:43:40;17.08;;;6.85;;
80748;SDS011;70145;53.746;9.970;2023-11-19T06:46:05;9.77;;;4.63;;
80748;SDS011;70145;53.746;9.970;2023-11-19T06:48:34;15.98;;;6.03;;
80748;SDS011;70145;53.746;9.970;2023-11-19T06:50:59;15.93;;;6.05;;
80748;SDS011;70145;53.746;9.970;2023-11-19T06:53:25;9.95;;;4.45;;
80748;SDS011;70145;53.746;9.970;2023-11-19T06:55:52;16.58;;;4.28;;
80748;SDS011;70145;53.746;9.970;2023-11-19T06:58:18;12.50;;;4.80;;
80748;SDS011;70145;53.746;9.970;2023-11-19T07:00:43;13.32;;;4.32;;
80748;SDS011;70145;53.746;9.970;2023-11-19T07:03:09;8.68;;;3.78;;
80748;SDS011;70145;53.746;9.970;2023-11-19T07:05:38;14.95;;;4.65;;
80748;SDS011;70145;53.746;9.970;2023-11-19T07:08:03;12.82;;;4.30;;
80748;SDS011;70145;53.746;9.970;2023-11-19T07:10:29;12.30;;;4.20;;
80748;SDS011;70145;53.746;9.970;2023-11-19T07:12:56;15.25;;;3.08;;
80748;SDS011;70145;53.746;9.970;2023-11-19T07:15:21;9.70;;;3.35;;
80748;SDS011;70145;53.746;9.970;2023-11-19T07:17:46;11.80;;;3.28;;
80748;SDS011;70145;53.746;9.970;2023-11-19T07:20:13;9.30;;;3.42;;
80748;SDS011;70145;53.746;9.970;2023-11-19T07:22:42;15.60;;;3.25;;
80748;SDS011;70145;53.746;9.970;2023-11-19T07:25:10;12.57;;;3.65;;
80748;SDS011;70145;53.746;9.970;2023-11-19T07:27:37;17.67;;;3.78;;
80748;SDS011;70145;53.746;9.970;2023-11-19T07:30:03;8.85;;;2.60;;
80748;SDS011;70145;53.746;9.970;2023-11-19T07:32:29;12.20;;;2.95;;
80748;SDS011;70145;53.746;9.970;2023-11-19T07:34:55;11.77;;;2.90;;
80748;SDS011;70145;53.746;9.970;2023-11-19T07:37:21;13.60;;;3.67;;
80748;SDS011;70145;53.746;9.970;2023-11-19T07:39:47;11.18;;;3.05;;
80748;SDS011;70145;53.746;9.970;2023-11-19T07:42:12;15.20;;;3.60;;
80748;SDS011;70145;53.746;9.970;2023-11-19T07:44:38;14.32;;;3.20;;
80748;SDS011;70145;53.746;9.970;2023-11-19T07:47:03;14.60;;;3.33;;
80748;SDS011;70145;53.746;9.970;2023-11-19T07:49:28;12.90;;;2.30;;
80748;SDS011;70145;53.746;9.970;2023-11-19T07:51:54;16.70;;;2.60;;
80748;SDS011;70145;53.746;9.970;2023-11-19T07:54:19;17.83;;;3.13;;
80748;SDS011;70145;53.746;9.970;2023-11-19T07:56:46;12.95;;;3.00;;
80748;SDS011;70145;53.746;9.970;2023-11-19T07:59:11;16.40;;;3.38;;
80748;SDS011;70145;53.746;9.970;2023-11-19T08:01:37;17.92;;;3.45;;
80748;SDS011;70145;53.746;9.970;2023-11-19T08:04:02;13.73;;;2.57;;
80748;SDS011;70145;53.746;9.970;2023-11-19T08:06:27;8.82;;;3.17;;
80748;SDS011;70145;53.746;9.970;2023-11-19T08:08:53;16.70;;;2.88;;
80748;SDS011;70145;53.746;9.970;2023-11-19T08:11:18;15.17;;;3.33;;
80748;SDS011;70145;53.746;9.970;2023-11-19T08:13:47;16.95;;;3.38;;
80748;SDS011;70145;53.746;9.970;2023-11-19T08:16:12;16.02;;;3.05;;
80748;SDS011;70145;53.746;9.970;2023-11-19T08:18:37;17.75;;;2.58;;
80748;SDS011;70145;53.746;9.970;2023-11-19T08:21:03;14.75;;;3.25;;
80748;SDS011;70145;53.746;9.970;2023-11-19T08:23:29;14.23;;;3.22;;
80748;SDS011;70145;53.746;9.970;2023-11-19T08:25:55;11.80;;;2.60;;
80748;SDS011;70145;53.746;9.970;2023-11-19T08:28:20;13.07;;;2.60;;
80748;SDS011;70145;53.746;9.970;2023-11-19T08:30:46;17.80;;;2.72;;
80748;SDS011;70145;53.746;9.970;2023-11-19T08:33:11;15.57;;;2.30;;
80748;SDS011;70145;53.746;9.970;2023-11-19T08:35:36;16.23;;;2.58;;
80748;SDS011;70145;53.746;9.970;2023-11-19T08:38:02;19.00;;;3.22;;
80748;SDS011;70145;53.746;9.970;2023-11-19T08:40:27;15.07;;;2.93;;
80748;SDS011;70145;53.746;9.970;2023-11-19T08:42:54;14.60;;;2.90;;
80748;SDS011;70145;53.746;9.970;2023-11-19T08:45:21;14.70;;;3.35;;
80748;SDS011;70145;53.746;9.970;2023-11-19T08:47:46;17.45;;;3.80;;
80748;SDS011;70145;53.746;9.970;2023-11-19T08:50:11;13.85;;;3.53;;
80748;SDS011;70145;53.746;9.970;2023-11-19T08:52:37;15.15;;;3.28;;
80748;SDS011;70145;53.746;9.970;2023-11-19T08:55:03;15.02;;;2.55;;
80748;SDS011;70145;53.746;9.970;2023-11-19T08:57:30;15.43;;;2.92;;
80748;SDS011;70145;53.746;9.970;2023-11-19T08:59:55;13.88;;;2.35;;
80748;SDS011;70145;53.746;9.970;2023-11-19T09:02:21;17.30;;;3.63;;
80748;SDS011;70145;53.746;9.970;2023-11-19T09:04:46;21.00;;;2.70;;
80748;SDS011;70145;53.746;9.970;2023-11-19T09:07:11;15.47;;;3.03;;
80748;SDS011;70145;53.746;9.970;2023-11-19T09:09:37;16.20;;;2.90;;
80748;SDS011;70145;53.746;9.970;2023-11-19T09:12:03;15.10;;;3.43;;
80748;SDS011;70145;53.746;9.970;2023-11-19T09:14:29;18.27;;;3.40;;
80748;SDS011;70145;53.746;9.970;2023-11-19T09:16:55;17.92;;;3.00;;
80748;SDS011;70145;53.746;9.970;2023-11-19T09:19:21;17.77;;;2.55;;
80748;SDS011;70145;53.746;9.970;2023-11-19T09:21:46;16.42;;;2.92;;
80748;SDS011;70145;53.746;9.970;2023-11-19T09:24:13;15.27;;;2.65;;
80748;SDS011;70145;53.746;9.970;2023-11-19T09:26:38;18.05;;;3.97;;
80748;SDS011;70145;53.746;9.970;2023-11-19T09:29:06;24.75;;;4.25;;
80748;SDS011;70145;53.746;9.970;2023-11-19T09:31:32;15.40;;;2.83;;
80748;SDS011;70145;53.746;9.970;2023-11-19T09:33:57;20.10;;;4.15;;
80748;SDS011;70145;53.746;9.970;2023-11-19T09:36:23;15.73;;;2.73;;
80748;SDS011;70145;53.746;9.970;2023-11-19T09:38:48;17.25;;;3.15;;
80748;SDS011;70145;53.746;9.970;2023-11-19T09:41:13;15.32;;;2.88;;
80748;SDS011;70145;53.746;9.970;2023-11-19T09:43:39;15.13;;;3.05;;
80748;SDS011;70145;53.746;9.970;2023-11-19T09:46:06;16.27;;;3.10;;
80748;SDS011;70145;53.746;9.970;2023-11-19T09:48:35;15.57;;;2.97;;
80748;SDS011;70145;53.746;9.970;2023-11-19T09:51:05;13.60;;;2.90;;
80748;SDS011;70145;53.746;9.970;2023-11-19T09:53:31;16.15;;;2.80;;
80748;SDS011;70145;53.746;9.970;2023-11-19T09:55:57;12.10;;;2.45;;
80748;SDS011;70145;53.746;9.970;2023-11-19T09:58:25;18.48;;;3.05;;
80748;SDS011;70145;53.746;9.970;2023-11-19T10:00:51;17.40;;;2.67;;
80748;SDS011;70145;53.746;9.970;2023-11-19T10:03:17;13.18;;;2.97;;
80748;SDS011;70145;53.746;9.970;2023-11-19T10:05:43;14.88;;;3.60;;
80748;SDS011;70145;53.746;9.970;2023-11-19T10:08:08;14.13;;;2.65;;
80748;SDS011;70145;53.746;9.970;2023-11-19T10:10:34;14.77;;;3.47;;
80748;SDS011;70145;53.746;9.970;2023-11-19T10:12:59;14.65;;;3.40;;
80748;SDS011;70145;53.746;9.970;2023-11-19T10:15:25;14.32;;;2.47;;
80748;SDS011;70145;53.746;9.970;2023-11-19T10:17:52;16.42;;;2.83;;
80748;SDS011;70145;53.746;9.970;2023-11-19T10:20:20;16.77;;;2.60;;
80748;SDS011;70145;53.746;9.970;2023-11-19T10:22:45;22.43;;;2.60;;
80748;SDS011;70145;53.746;9.970;2023-11-19T10:25:21;19.27;;;3.17;;
80748;SDS011;70145;53.746;9.970;2023-11-19T10:27:48;13.98;;;2.42;;
80748;SDS011;70145;53.746;9.970;2023-11-19T10:30:17;12.00;;;2.28;;
80748;SDS011;70145;53.746;9.970;2023-11-19T10:32:43;20.45;;;3.38;;
80748;SDS011;70145;53.746;9.970;2023-11-19T10:35:08;13.38;;;2.38;;
80748;SDS011;70145;53.746;9.970;2023-11-19T10:37:37;19.52;;;2.92;;
80748;SDS011;70145;53.746;9.970;2023-11-19T10:40:02;15.43;;;3.15;;
80748;SDS011;70145;53.746;9.970;2023-11-19T10:42:30;18.52;;;2.90;;
80748;SDS011;70145;53.746;9.970;2023-11-19T10:44:55;16.83;;;3.10;;
80748;SDS011;70145;53.746;9.970;2023-11-19T10:47:21;15.90;;;3.05;;
80748;SDS011;70145;53.746;9.970;2023-11-19T10:49:48;18.60;;;3.30;;
80748;SDS011;70145;53.746;9.970;2023-11-19T10:52:18;15.35;;;3.40;;
80748;SDS011;70145;53.746;9.970;2023-11-19T10:54:50;15.32;;;2.95;;
80748;SDS011;70145;53.746;9.970;2023-11-19T10:57:22;18.10;;;3.45;;
80748;SDS011;70145;53.746;9.970;2023-11-19T10:59:52;10.82;;;3.17;;
80748;SDS011;70145;53.746;9.970;2023-11-19T11:02:26;14.20;;;2.92;;
80748;SDS011;70145;53.746;9.970;2023-11-19T11:04:53;14.80;;;3.40;;
80748;SDS011;70145;53.746;9.970;2023-11-19T11:07:21;17.48;;;2.95;;
80748;SDS011;70145;53.746;9.970;2023-11-19T11:09:50;12.20;;;3.05;;
80748;SDS011;70145;53.746;9.970;2023-11-19T11:12:16;15.63;;;3.10;;
80748;SDS011;70145;53.746;9.970;2023-11-19T11:14:46;22.05;;;5.75;;
80748;SDS011;70145;53.746;9.970;2023-11-19T11:17:12;14.50;;;3.25;;
80748;SDS011;70145;53.746;9.970;2023-11-19T11:19:42;9.25;;;1.95;;
80748;SDS011;70145;53.746;9.970;2023-11-19T11:22:08;19.35;;;3.65;;
80748;SDS011;70145;53.746;9.970;2023-11-19T11:33:22;17.42;;;3.15;;
80748;SDS011;70145;53.746;9.970;2023-11-19T11:36:19;17.85;;;2.80;;
80748;SDS011;70145;53.746;9.970;2023-11-19T11:38:48;13.52;;;2.47;;
80748;SDS011;70145;53.746;9.970;2023-11-19T11:41:18;14.57;;;3.08;;
80748;SDS011;70145;53.746;9.970;2023-11-19T11:43:48;23.02;;;2.85;;
80748;SDS011;70145;53.746;9.970;2023-11-19T11:49:02;18.05;;;2.72;;
80748;SDS011;70145;53.746;9.970;2023-11-19T11:57:03;12.52;;;2.88;;
80748;SDS011;70145;53.746;9.970;2023-11-19T12:02:20;12.27;;;1.80;;
80748;SDS011;70145;53.746;9.970;2023-11-19T12:04:48;14.13;;;3.08;;
80748;SDS011;70145;53.746;9.970;2023-11-19T12:07:21;11.60;;;2.55;;
80748;SDS011;70145;53.746;9.970;2023-11-19T12:10:08;13.25;;;2.40;;
80748;SDS011;70145;53.746;9.970;2023-11-19T12:12:36;10.73;;;2.22;;
80748;SDS011;70145;53.746;9.970;2023-11-19T12:15:07;9.63;;;2.25;;
80748;SDS011;70145;53.746;9.970;2023-11-19T12:17:37;9.15;;;1.90;;
80748;SDS011;70145;53.746;9.970;2023-11-19T12:20:06;12.40;;;2.00;;
80748;SDS011;70145;53.746;9.970;2023-11-19T12:22:39;13.10;;;3.53;;
80748;SDS011;70145;53.746;9.970;2023-11-19T12:25:06;14.50;;;2.78;;
80748;SDS011;70145;53.746;9.970;2023-11-19T12:27:34;17.75;;;3.10;;
80748;SDS011;70145;53.746;9.970;2023-11-19T12:30:00;19.50;;;2.60;;
80748;SDS011;70145;53.746;9.970;2023-11-19T12:32:25;20.75;;;3.08;;
80748;SDS011;70145;53.746;9.970;2023-11-19T12:34:51;17.20;;;2.87;;
80748;SDS011;70145;53.746;9.970;2023-11-19T12:37:16;16.70;;;2.67;;
80748;SDS011;70145;53.746;9.970;2023-11-19T12:39:41;17.63;;;2.83;;
80748;SDS011;70145;53.746;9.970;2023-11-19T12:42:07;16.63;;;3.05;;
80748;SDS011;70145;53.746;9.970;2023-11-19T12:44:32;19.98;;;3.63;;
80748;SDS011;70145;53.746;9.970;2023-11-19T12:47:03;17.60;;;3.17;;
80748;SDS011;70145;53.746;9.970;2023-11-19T12:49:29;10.88;;;2.72;;
80748;SDS011;70145;53.746;9.970;2023-11-19T12:51:55;17.98;;;3.08;;
80748;SDS011;70145;53.746;9.970;2023-11-19T12:54:31;15.93;;;2.75;;
80748;SDS011;70145;53.746;9.970;2023-11-19T12:57:05;13.40;;;2.17;;
80748;SDS011;70145;53.746;9.970;2023-11-19T12:59:31;10.27;;;1.92;;
80748;SDS011;70145;53.746;9.970;2023-11-19T13:01:57;15.52;;;2.58;;
80748;SDS011;70145;53.746;9.970;2023-11-19T13:04:23;14.32;;;2.15;;
80748;SDS011;70145;53.746;9.970;2023-11-19T13:06:53;19.42;;;2.85;;
80748;SDS011;70145;53.746;9.970;2023-11-19T13:09:25;13.85;;;3.13;;
80748;SDS011;70145;53.746;9.970;2023-11-19T13:11:51;13.07;;;2.63;;
80748;SDS011;70145;53.746;9.970;2023-11-19T13:14:17;15.73;;;2.90;;
80748;SDS011;70145;53.746;9.970;2023-11-19T13:16:44;12.20;;;2.33;;
80748;SDS011;70145;53.746;9.970;2023-11-19T13:19:11;17.38;;;2.97;;
80748;SDS011;70145;53.746;9.970;2023-11-19T13:21:37;14.13;;;2.63;;
80748;SDS011;70145;53.746;9.970;2023-11-19T13:24:03;16.73;;;2.50;;
80748;SDS011;70145;53.746;9.970;2023-11-19T13:26:28;14.93;;;3.53;;
80748;SDS011;70145;53.746;9.970;2023-11-19T13:28:54;16.08;;;2.38;;
80748;SDS011;70145;53.746;9.970;2023-11-19T13:31:19;14.80;;;2.50;;
80748;SDS011;70145;53.746;9.970;2023-11-19T13:33:44;13.73;;;2.20;;
80748;SDS011;70145;53.746;9.970;2023-11-19T13:36:10;13.85;;;2.85;;
80748;SDS011;70145;53.746;9.970;2023-11-19T13:38:36;12.00;;;2.15;;
80748;SDS011;70145;53.746;9.970;2023-11-19T13:41:02;13.30;;;2.40;;
80748;SDS011;70145;53.746;9.970;2023-11-19T13:43:29;13.80;;;1.90;;
80748;SDS011;70145;53.746;9.970;2023-11-19T13:45:55;14.55;;;2.00;;
80748;SDS011;70145;53.746;9.970;2023-11-19T13:48:21;15.13;;;2.72;;
80748;SDS011;70145;53.746;9.970;2023-11-19T13:50:47;12.90;;;2.72;;
80748;SDS011;70145;53.746;9.970;2023-11-19T13:53:12;16.77;;;3.42;;
80748;SDS011;70145;53.746;9.970;2023-11-19T13:55:37;14.57;;;3.13;;
80748;SDS011;70145;53.746;9.970;2023-11-19T13:58:03;14.52;;;3.00;;
80748;SDS011;70145;53.746;9.970;2023-11-19T14:00:28;11.90;;;2.80;;
80748;SDS011;70145;53.746;9.970;2023-11-19T14:02:53;14.27;;;2.47;;
80748;SDS011;70145;53.746;9.970;2023-11-19T14:05:19;14.40;;;3.97;;
80748;SDS011;70145;53.746;9.970;2023-11-19T14:07:45;13.50;;;3.45;;
80748;SDS011;70145;53.746;9.970;2023-11-19T14:10:13;17.20;;;3.63;;
80748;SDS011;70145;53.746;9.970;2023-11-19T14:12:40;16.55;;;3.13;;
80748;SDS011;70145;53.746;9.970;2023-11-19T14:15:06;13.13;;;2.63;;
80748;SDS011;70145;53.746;9.970;2023-11-19T14:17:32;15.40;;;3.25;;
80748;SDS011;70145;53.746;9.970;2023-11-19T14:19:59;13.05;;;4.35;;
80748;SDS011;70145;53.746;9.970;2023-11-19T14:22:24;20.58;;;5.57;;
80748;SDS011;70145;53.746;9.970;2023-11-19T14:24:49;15.18;;;3.90;;
80748;SDS011;70145;53.746;9.970;2023-11-19T14:27:15;16.67;;;3.63;;
80748;SDS011;70145;53.746;9.970;2023-11-19T14:29:42;15.85;;;2.72;;
80748;SDS011;70145;53.746;9.970;2023-11-19T14:32:07;11.65;;;2.08;;
80748;SDS011;70145;53.746;9.970;2023-11-19T14:34:32;7.65;;;2.42;;
80748;SDS011;70145;53.746;9.970;2023-11-19T14:36:58;13.98;;;3.42;;
80748;SDS011;70145;53.746;9.970;2023-11-19T14:39:24;12.98;;;3.30;;
80748;SDS011;70145;53.746;9.970;2023-11-19T14:41:49;9.30;;;2.38;;
80748;SDS011;70145;53.746;9.970;2023-11-19T14:44:15;13.45;;;3.83;;
80748;SDS011;70145;53.746;9.970;2023-11-19T14:46:41;11.70;;;3.03;;
80748;SDS011;70145;53.746;9.970;2023-11-19T14:49:06;14.70;;;3.20;;
80748;SDS011;70145;53.746;9.970;2023-11-19T14:51:35;12.40;;;2.63;;
80748;SDS011;70145;53.746;9.970;2023-11-19T14:54:01;14.75;;;3.10;;
80748;SDS011;70145;53.746;9.970;2023-11-19T14:56:27;10.60;;;2.60;;